DLH1211 EGLL-EBBR
Flight info
| Callsign | DLH1211 |
|---|---|
| Flight time | 0h 43m |
| Altitude | 23000 |
| Route | DET Q70 KOK |
| Aircraft | A359/H-SDE2E3GHIJ3J4J5LM1ORWXY/LB1D1 |
Departure
| Time | 2026-05-06 08:16 |
|---|---|
| Airport | London Heathrow Airport (EGLL) |
Arrival
| Time | 2026-05-06 09:00 |
|---|---|
| Airport | Brussels Airport (EBBR) |
| Time | Latitude | Longitude | Altitude | Speed | Heading |
|---|---|---|---|---|---|
| 2026-05-06 07:57 | 51.46986 | -0.46996 | 95 ft | 0 kts | 270° |
| 2026-05-06 08:06 | 51.46986 | -0.46995 | 92 ft | 0 kts | 269° |
| 2026-05-06 08:07 | 51.46986 | -0.46970 | 95 ft | 3 kts | 270° |
| 2026-05-06 08:08 | 51.46986 | -0.46947 | 94 ft | 3 kts | 270° |
| 2026-05-06 08:08 | 51.46986 | -0.46916 | 96 ft | 3 kts | 270° |
| 2026-05-06 08:08 | 51.46986 | -0.46887 | 93 ft | 3 kts | 258° |
| 2026-05-06 08:08 | 51.46992 | -0.46864 | 94 ft | 3 kts | 206° |
| 2026-05-06 08:09 | 51.47010 | -0.46858 | 92 ft | 3 kts | 173° |
| 2026-05-06 08:09 | 51.47030 | -0.46863 | 93 ft | 3 kts | 175° |
| 2026-05-06 08:09 | 51.47038 | -0.46863 | 92 ft | 0 kts | 180° |
| 2026-05-06 08:11 | 51.47037 | -0.46863 | 92 ft | 0 kts | 180° |
| 2026-05-06 08:11 | 51.47029 | -0.46863 | 93 ft | 4 kts | 181° |
| 2026-05-06 08:11 | 51.46975 | -0.46866 | 94 ft | 10 kts | 181° |
| 2026-05-06 08:11 | 51.46893 | -0.46863 | 92 ft | 13 kts | 178° |
| 2026-05-06 08:12 | 51.46794 | -0.46862 | 96 ft | 16 kts | 180° |
| 2026-05-06 08:12 | 51.46688 | -0.46864 | 95 ft | 12 kts | 191° |
| 2026-05-06 08:12 | 51.46657 | -0.46966 | 97 ft | 12 kts | 269° |
| 2026-05-06 08:12 | 51.46656 | -0.47120 | 95 ft | 16 kts | 269° |
| 2026-05-06 08:13 | 51.46655 | -0.47324 | 95 ft | 20 kts | 270° |
| 2026-05-06 08:13 | 51.46655 | -0.47567 | 95 ft | 23 kts | 269° |
| 2026-05-06 08:13 | 51.46654 | -0.47844 | 94 ft | 26 kts | 269° |
| 2026-05-06 08:13 | 51.46654 | -0.48117 | 94 ft | 23 kts | 270° |
| 2026-05-06 08:14 | 51.46653 | -0.48374 | 93 ft | 18 kts | 270° |
| 2026-05-06 08:14 | 51.46642 | -0.48463 | 97 ft | 4 kts | 218° |
| 2026-05-06 08:14 | 51.46615 | -0.48466 | 96 ft | 0 kts | 179° |
| 2026-05-06 08:14 | 51.46614 | -0.48466 | 96 ft | 1 kts | 179° |
| 2026-05-06 08:15 | 51.46592 | -0.48466 | 95 ft | 7 kts | 180° |
| 2026-05-06 08:15 | 51.46511 | -0.48461 | 97 ft | 14 kts | 167° |
| 2026-05-06 08:15 | 51.46479 | -0.48334 | 96 ft | 14 kts | 92° |
| 2026-05-06 08:16 | 51.46480 | -0.48157 | 94 ft | 28 kts | 89° |
| 2026-05-06 08:16 | 51.46482 | -0.47391 | 93 ft | 106 kts | 90° |
| 2026-05-06 08:16 | 51.46491 | -0.45850 | 113 ft | 167 kts | 88° |
| 2026-05-06 08:16 | 51.46485 | -0.43977 | 815 ft | 171 kts | 87° |
| 2026-05-06 08:17 | 51.46436 | -0.42003 | 1471 ft | 190 kts | 97° |
| 2026-05-06 08:17 | 51.45838 | -0.39941 | 1967 ft | 216 kts | 118° |
| 2026-05-06 08:17 | 51.45053 | -0.37794 | 2622 ft | 232 kts | 114° |
| 2026-05-06 08:17 | 51.44360 | -0.35351 | 3270 ft | 248 kts | 107° |
| 2026-05-06 08:18 | 51.43741 | -0.32696 | 4031 ft | 259 kts | 105° |
| 2026-05-06 08:18 | 51.43127 | -0.29923 | 4853 ft | 268 kts | 105° |
| 2026-05-06 08:18 | 51.42603 | -0.27033 | 5560 ft | 273 kts | 100° |
| 2026-05-06 08:18 | 51.42182 | -0.24074 | 5925 ft | 277 kts | 99° |
| 2026-05-06 08:19 | 51.41775 | -0.21065 | 5997 ft | 278 kts | 99° |
| 2026-05-06 08:19 | 51.41362 | -0.18025 | 5997 ft | 279 kts | 99° |
| 2026-05-06 08:19 | 51.40948 | -0.14990 | 5990 ft | 279 kts | 99° |
| 2026-05-06 08:19 | 51.40534 | -0.11946 | 5990 ft | 280 kts | 99° |
| 2026-05-06 08:20 | 51.40113 | -0.08908 | 5992 ft | 279 kts | 99° |
| 2026-05-06 08:20 | 51.39690 | -0.05867 | 5989 ft | 279 kts | 99° |
| 2026-05-06 08:20 | 51.39269 | -0.02830 | 5989 ft | 279 kts | 99° |
| 2026-05-06 08:20 | 51.38846 | 0.00208 | 5998 ft | 280 kts | 99° |
| 2026-05-06 08:21 | 51.38422 | 0.03251 | 5994 ft | 281 kts | 99° |
| 2026-05-06 08:21 | 51.37995 | 0.06315 | 5995 ft | 282 kts | 98° |
| 2026-05-06 08:21 | 51.37570 | 0.09366 | 5992 ft | 281 kts | 98° |
| 2026-05-06 08:21 | 51.37143 | 0.12419 | 5994 ft | 281 kts | 99° |
| 2026-05-06 08:22 | 51.36713 | 0.15480 | 5997 ft | 281 kts | 99° |
| 2026-05-06 08:22 | 51.36283 | 0.18531 | 5991 ft | 281 kts | 99° |
| 2026-05-06 08:22 | 51.35856 | 0.21546 | 5993 ft | 282 kts | 99° |
| 2026-05-06 08:22 | 51.35425 | 0.24598 | 5992 ft | 281 kts | 98° |
| 2026-05-06 08:23 | 51.34988 | 0.27689 | 5990 ft | 281 kts | 98° |
| 2026-05-06 08:23 | 51.34560 | 0.30700 | 5989 ft | 281 kts | 98° |
| 2026-05-06 08:23 | 51.34128 | 0.33746 | 5988 ft | 281 kts | 99° |
| 2026-05-06 08:23 | 51.33693 | 0.36797 | 5989 ft | 281 kts | 99° |
| 2026-05-06 08:24 | 51.33259 | 0.39846 | 5980 ft | 280 kts | 99° |
| 2026-05-06 08:24 | 51.32826 | 0.42880 | 5981 ft | 280 kts | 99° |
| 2026-05-06 08:24 | 51.32391 | 0.45915 | 6076 ft | 280 kts | 99° |
| 2026-05-06 08:24 | 51.31957 | 0.48958 | 6087 ft | 281 kts | 99° |
| 2026-05-06 08:25 | 51.31518 | 0.52013 | 6085 ft | 282 kts | 99° |
| 2026-05-06 08:25 | 51.31077 | 0.55063 | 6086 ft | 282 kts | 99° |
| 2026-05-06 08:25 | 51.30634 | 0.58132 | 6099 ft | 293 kts | 99° |
| 2026-05-06 08:25 | 51.30272 | 0.61616 | 6290 ft | 342 kts | 93° |
| 2026-05-06 08:26 | 51.30052 | 0.65635 | 6602 ft | 383 kts | 91° |
| 2026-05-06 08:26 | 51.29912 | 0.69967 | 7054 ft | 396 kts | 90° |
| 2026-05-06 08:26 | 51.29795 | 0.74422 | 7756 ft | 409 kts | 90° |
| 2026-05-06 08:26 | 51.29671 | 0.79107 | 8494 ft | 433 kts | 91° |
| 2026-05-06 08:27 | 51.29524 | 0.84005 | 9434 ft | 449 kts | 91° |
| 2026-05-06 08:27 | 51.29354 | 0.89044 | 10433 ft | 458 kts | 92° |
| 2026-05-06 08:27 | 51.29166 | 0.94169 | 11399 ft | 465 kts | 92° |
| 2026-05-06 08:27 | 51.28966 | 0.99357 | 12422 ft | 470 kts | 93° |
| 2026-05-06 08:28 | 51.28760 | 1.04596 | 13475 ft | 474 kts | 93° |
| 2026-05-06 08:28 | 51.28552 | 1.09869 | 14460 ft | 477 kts | 93° |
| 2026-05-06 08:28 | 51.28349 | 1.15160 | 15459 ft | 477 kts | 93° |
| 2026-05-06 08:28 | 51.28138 | 1.20476 | 16498 ft | 481 kts | 92° |
| 2026-05-06 08:29 | 51.27918 | 1.25824 | 17553 ft | 484 kts | 92° |
| 2026-05-06 08:29 | 51.27694 | 1.31192 | 18586 ft | 485 kts | 92° |
| 2026-05-06 08:29 | 51.27468 | 1.36574 | 19551 ft | 485 kts | 93° |
| 2026-05-06 08:29 | 51.27241 | 1.41947 | 20551 ft | 484 kts | 93° |
| 2026-05-06 08:30 | 51.27013 | 1.47291 | 21647 ft | 481 kts | 93° |
| 2026-05-06 08:30 | 51.26784 | 1.52641 | 22472 ft | 485 kts | 94° |
| 2026-05-06 08:30 | 51.26556 | 1.57951 | 22884 ft | 477 kts | 94° |
| 2026-05-06 08:30 | 51.26323 | 1.63274 | 22946 ft | 483 kts | 94° |
| 2026-05-06 08:31 | 51.26090 | 1.68544 | 22948 ft | 470 kts | 94° |
| 2026-05-06 08:31 | 51.25862 | 1.73646 | 22941 ft | 464 kts | 94° |
| 2026-05-06 08:31 | 51.25631 | 1.78771 | 22937 ft | 463 kts | 94° |
| 2026-05-06 08:31 | 51.25398 | 1.83901 | 22933 ft | 463 kts | 94° |
| 2026-05-06 08:32 | 51.25162 | 1.89027 | 22928 ft | 463 kts | 94° |
| 2026-05-06 08:32 | 51.24925 | 1.94145 | 22924 ft | 463 kts | 94° |
| 2026-05-06 08:32 | 51.24686 | 1.99270 | 22923 ft | 462 kts | 94° |
| 2026-05-06 08:32 | 51.24449 | 2.04375 | 22923 ft | 462 kts | 94° |
| 2026-05-06 08:33 | 51.24208 | 2.09495 | 22920 ft | 462 kts | 94° |
| 2026-05-06 08:33 | 51.23963 | 2.14597 | 22920 ft | 462 kts | 95° |
| 2026-05-06 08:33 | 51.23715 | 2.19706 | 22922 ft | 462 kts | 95° |
| 2026-05-06 08:33 | 51.23463 | 2.24831 | 22920 ft | 462 kts | 95° |
| 2026-05-06 08:34 | 51.23211 | 2.29935 | 22918 ft | 462 kts | 95° |
| 2026-05-06 08:34 | 51.22190 | 2.39840 | 22629 ft | 440 kts | 111° |
| 2026-05-06 08:34 | 51.20734 | 2.44029 | 22388 ft | 425 kts | 127° |
| 2026-05-06 08:35 | 51.18917 | 2.47654 | 22131 ft | 414 kts | 130° |
| 2026-05-06 08:35 | 51.17054 | 2.51142 | 21860 ft | 413 kts | 131° |
| 2026-05-06 08:35 | 51.15187 | 2.54604 | 21588 ft | 412 kts | 131° |
| 2026-05-06 08:35 | 51.13340 | 2.58020 | 21342 ft | 410 kts | 131° |
| 2026-05-06 08:36 | 51.11486 | 2.61451 | 21084 ft | 408 kts | 130° |
| 2026-05-06 08:36 | 51.09854 | 2.65153 | 20667 ft | 400 kts | 117° |
| 2026-05-06 08:36 | 51.08955 | 2.69227 | 20139 ft | 394 kts | 102° |
| 2026-05-06 08:36 | 51.08421 | 2.73484 | 19614 ft | 391 kts | 100° |
| 2026-05-06 08:37 | 51.07927 | 2.77778 | 19066 ft | 388 kts | 99° |
| 2026-05-06 08:37 | 51.07439 | 2.81971 | 18539 ft | 385 kts | 99° |
| 2026-05-06 08:37 | 51.06953 | 2.86079 | 17989 ft | 382 kts | 100° |
| 2026-05-06 08:37 | 51.06458 | 2.90208 | 17423 ft | 378 kts | 100° |
| 2026-05-06 08:38 | 51.05966 | 2.94286 | 16895 ft | 373 kts | 100° |
| 2026-05-06 08:38 | 51.05476 | 2.98319 | 16372 ft | 369 kts | 100° |
| 2026-05-06 08:38 | 51.04991 | 3.02299 | 15849 ft | 365 kts | 100° |
| 2026-05-06 08:38 | 51.04508 | 3.06237 | 15337 ft | 361 kts | 100° |
| 2026-05-06 08:39 | 51.04022 | 3.10195 | 14810 ft | 358 kts | 100° |
| 2026-05-06 08:39 | 51.03553 | 3.14001 | 14309 ft | 355 kts | 99° |
| 2026-05-06 08:39 | 51.03074 | 3.17881 | 13791 ft | 352 kts | 100° |
| 2026-05-06 08:39 | 51.02609 | 3.21630 | 13252 ft | 348 kts | 100° |
| 2026-05-06 08:40 | 51.02142 | 3.25381 | 12740 ft | 344 kts | 100° |
| 2026-05-06 08:40 | 51.01681 | 3.29081 | 12232 ft | 340 kts | 100° |
| 2026-05-06 08:40 | 51.01222 | 3.32747 | 11757 ft | 335 kts | 99° |
| 2026-05-06 08:40 | 51.00769 | 3.36360 | 11246 ft | 332 kts | 99° |
| 2026-05-06 08:41 | 51.00319 | 3.39943 | 10803 ft | 329 kts | 99° |
| 2026-05-06 08:41 | 50.99881 | 3.43423 | 10666 ft | 314 kts | 100° |
| 2026-05-06 08:41 | 50.99460 | 3.46737 | 10549 ft | 299 kts | 99° |
| 2026-05-06 08:41 | 50.99058 | 3.49904 | 10449 ft | 286 kts | 99° |
| 2026-05-06 08:42 | 50.98673 | 3.52940 | 10352 ft | 275 kts | 99° |
| 2026-05-06 08:42 | 50.98300 | 3.55885 | 10146 ft | 272 kts | 99° |
| 2026-05-06 08:42 | 50.97927 | 3.58818 | 9824 ft | 271 kts | 99° |
| 2026-05-06 08:42 | 50.97545 | 3.61830 | 9574 ft | 286 kts | 99° |
| 2026-05-06 08:43 | 50.97147 | 3.64951 | 9455 ft | 288 kts | 99° |
| 2026-05-06 08:43 | 50.96750 | 3.68047 | 8981 ft | 287 kts | 100° |
| 2026-05-06 08:43 | 50.96349 | 3.71153 | 8506 ft | 286 kts | 99° |
| 2026-05-06 08:43 | 50.95952 | 3.74223 | 8167 ft | 281 kts | 99° |
| 2026-05-06 08:44 | 50.95562 | 3.77242 | 7832 ft | 278 kts | 99° |
| 2026-05-06 08:44 | 50.95174 | 3.80243 | 7509 ft | 277 kts | 100° |
| 2026-05-06 08:44 | 50.94787 | 3.83233 | 7196 ft | 276 kts | 99° |
| 2026-05-06 08:44 | 50.94401 | 3.86198 | 6872 ft | 274 kts | 99° |
| 2026-05-06 08:45 | 50.94016 | 3.89150 | 6554 ft | 272 kts | 99° |
| 2026-05-06 08:45 | 50.93634 | 3.92082 | 6244 ft | 270 kts | 99° |
| 2026-05-06 08:45 | 50.93254 | 3.94990 | 5912 ft | 269 kts | 99° |
| 2026-05-06 08:45 | 50.92836 | 3.97876 | 5614 ft | 268 kts | 104° |
| 2026-05-06 08:46 | 50.91983 | 4.00489 | 5348 ft | 270 kts | 124° |
| 2026-05-06 08:46 | 50.90756 | 4.02753 | 5023 ft | 270 kts | 130° |
| 2026-05-06 08:46 | 50.89524 | 4.04934 | 4850 ft | 268 kts | 125° |
| 2026-05-06 08:46 | 50.88611 | 4.07457 | 4803 ft | 263 kts | 107° |
| 2026-05-06 08:47 | 50.88355 | 4.10275 | 4972 ft | 257 kts | 83° |
| 2026-05-06 08:47 | 50.88887 | 4.12934 | 5439 ft | 255 kts | 60° |
| 2026-05-06 08:47 | 50.89789 | 4.15369 | 5953 ft | 257 kts | 57° |
| 2026-05-06 08:47 | 50.90854 | 4.17625 | 6278 ft | 251 kts | 45° |
| 2026-05-06 08:48 | 50.91854 | 4.19818 | 6325 ft | 243 kts | 58° |
| 2026-05-06 08:48 | 50.92685 | 4.22136 | 6118 ft | 240 kts | 59° |
| 2026-05-06 08:48 | 50.93524 | 4.24424 | 5872 ft | 240 kts | 58° |
| 2026-05-06 08:48 | 50.94383 | 4.26693 | 5612 ft | 240 kts | 57° |
| 2026-05-06 08:49 | 50.95251 | 4.28931 | 5353 ft | 237 kts | 57° |
| 2026-05-06 08:49 | 50.96120 | 4.31143 | 5092 ft | 235 kts | 57° |
| 2026-05-06 08:49 | 50.96987 | 4.33336 | 4860 ft | 234 kts | 56° |
| 2026-05-06 08:49 | 50.97847 | 4.35518 | 4633 ft | 232 kts | 56° |
| 2026-05-06 08:50 | 50.98705 | 4.37679 | 4425 ft | 231 kts | 56° |
| 2026-05-06 08:50 | 50.99563 | 4.39836 | 4214 ft | 230 kts | 56° |
| 2026-05-06 08:50 | 51.00414 | 4.41981 | 3999 ft | 229 kts | 56° |
| 2026-05-06 08:50 | 51.01264 | 4.44113 | 3826 ft | 229 kts | 56° |
| 2026-05-06 08:51 | 51.02128 | 4.46239 | 3611 ft | 230 kts | 57° |
| 2026-05-06 08:51 | 51.02981 | 4.48376 | 3477 ft | 227 kts | 56° |
| 2026-05-06 08:51 | 51.03846 | 4.50580 | 3472 ft | 241 kts | 57° |
| 2026-05-06 08:51 | 51.04728 | 4.52851 | 3477 ft | 242 kts | 56° |
| 2026-05-06 08:52 | 51.05456 | 4.55288 | 3461 ft | 245 kts | 67° |
| 2026-05-06 08:52 | 51.05840 | 4.56965 | 3451 ft | 245 kts | 69° |
| 2026-05-06 08:52 | 51.06585 | 4.60360 | 3458 ft | 245 kts | 69° |
| 2026-05-06 08:52 | 51.07144 | 4.62894 | 3235 ft | 240 kts | 69° |
| 2026-05-06 08:53 | 51.07507 | 4.64548 | 3129 ft | 227 kts | 68° |
| 2026-05-06 08:53 | 51.07994 | 4.66764 | 3031 ft | 205 kts | 68° |
| 2026-05-06 08:53 | 51.08584 | 4.69570 | 2955 ft | 198 kts | 72° |
| 2026-05-06 08:53 | 51.08705 | 4.71025 | 2826 ft | 202 kts | 85° |
| 2026-05-06 08:54 | 51.08387 | 4.73223 | 2589 ft | 211 kts | 112° |
| 2026-05-06 08:54 | 51.07309 | 4.74813 | 2377 ft | 215 kts | 154° |
| 2026-05-06 08:54 | 51.05967 | 4.75590 | 2301 ft | 199 kts | 156° |
| 2026-05-06 08:54 | 51.04678 | 4.76334 | 2305 ft | 197 kts | 158° |
| 2026-05-06 08:55 | 51.03363 | 4.76967 | 2308 ft | 198 kts | 162° |
| 2026-05-06 08:55 | 51.02012 | 4.77437 | 2311 ft | 200 kts | 168° |
| 2026-05-06 08:55 | 51.00633 | 4.77732 | 2310 ft | 200 kts | 169° |
| 2026-05-06 08:55 | 50.99286 | 4.78183 | 2312 ft | 199 kts | 162° |
| 2026-05-06 08:56 | 50.97940 | 4.78675 | 2309 ft | 199 kts | 167° |
| 2026-05-06 08:56 | 50.96560 | 4.78612 | 2309 ft | 202 kts | 198° |
| 2026-05-06 08:56 | 50.95527 | 4.77206 | 2319 ft | 197 kts | 244° |
| 2026-05-06 08:56 | 50.95014 | 4.75217 | 2319 ft | 194 kts | 256° |
| 2026-05-06 08:57 | 50.94604 | 4.73192 | 2318 ft | 193 kts | 256° |
| 2026-05-06 08:57 | 50.94180 | 4.71163 | 2320 ft | 193 kts | 255° |
| 2026-05-06 08:57 | 50.93740 | 4.69146 | 2309 ft | 194 kts | 254° |
| 2026-05-06 08:57 | 50.93292 | 4.67126 | 2272 ft | 195 kts | 254° |
| 2026-05-06 08:58 | 50.92848 | 4.65134 | 1944 ft | 193 kts | 252° |
| 2026-05-06 08:58 | 50.92379 | 4.63143 | 1656 ft | 189 kts | 255° |
| 2026-05-06 08:58 | 50.91944 | 4.61230 | 1380 ft | 184 kts | 255° |
| 2026-05-06 08:58 | 50.91517 | 4.59375 | 1124 ft | 174 kts | 254° |
| 2026-05-06 08:59 | 50.91114 | 4.57628 | 897 ft | 164 kts | 255° |
| 2026-05-06 08:59 | 50.90730 | 4.55954 | 680 ft | 159 kts | 253° |
| 2026-05-06 08:59 | 50.90356 | 4.54342 | 468 ft | 153 kts | 253° |
| 2026-05-06 08:59 | 50.90003 | 4.52797 | 270 ft | 146 kts | 255° |
| 2026-05-06 09:00 | 50.89668 | 4.51339 | 180 ft | 129 kts | 251° |
| 2026-05-06 09:00 | 50.89437 | 4.50347 | 182 ft | 59 kts | 250° |
| 2026-05-06 09:00 | 50.89320 | 4.49842 | 184 ft | 38 kts | 250° |
| 2026-05-06 09:00 | 50.89241 | 4.49497 | 182 ft | 27 kts | 250° |
| 2026-05-06 09:01 | 50.89250 | 4.49274 | 180 ft | 19 kts | 304° |
| 2026-05-06 09:01 | 50.89334 | 4.49121 | 173 ft | 15 kts | 330° |
| 2026-05-06 09:01 | 50.89438 | 4.49135 | 169 ft | 3 kts | 14° |
| 2026-05-06 09:01 | 50.89439 | 4.49135 | 169 ft | 1 kts | 14° |
| 2026-05-06 09:02 | 50.89475 | 4.49150 | 167 ft | 8 kts | 14° |
| 2026-05-06 09:02 | 50.89491 | 4.49156 | 167 ft | 0 kts | 14° |
| 2026-05-06 09:02 | 50.89497 | 4.49159 | 166 ft | 5 kts | 14° |
| 2026-05-06 09:03 | 50.89552 | 4.49180 | 164 ft | 11 kts | 14° |
| 2026-05-06 09:03 | 50.89628 | 4.49217 | 160 ft | 10 kts | 30° |
| 2026-05-06 09:03 | 50.89718 | 4.49273 | 154 ft | 17 kts | 17° |
| 2026-05-06 09:03 | 50.89846 | 4.49336 | 146 ft | 22 kts | 17° |
| 2026-05-06 09:04 | 50.90012 | 4.49412 | 138 ft | 27 kts | 14° |
| 2026-05-06 09:04 | 50.90188 | 4.49483 | 134 ft | 27 kts | 14° |
| 2026-05-06 09:04 | 50.90328 | 4.49538 | 126 ft | 15 kts | 9° |
| 2026-05-06 09:04 | 50.90374 | 4.49499 | 125 ft | 2 kts | 264° |
| 2026-05-06 09:05 | 50.90363 | 4.49448 | 128 ft | 8 kts | 250° |
| 2026-05-06 09:05 | 50.90333 | 4.49345 | 123 ft | 12 kts | 245° |
| 2026-05-06 09:05 | 50.90295 | 4.49215 | 128 ft | 14 kts | 245° |
| 2026-05-06 09:05 | 50.90248 | 4.49052 | 126 ft | 18 kts | 245° |
| 2026-05-06 09:06 | 50.90230 | 4.48990 | 130 ft | 7 kts | 245° |
| 2026-05-06 09:06 | 50.90202 | 4.48968 | 133 ft | 3 kts | 170° |
| 2026-05-06 09:06 | 50.90185 | 4.48980 | 133 ft | 2 kts | 152° |
| 2026-05-06 09:06 | 50.90172 | 4.48991 | 136 ft | 2 kts | 153° |
| 2026-05-06 09:07 | 50.90165 | 4.48996 | 136 ft | 0 kts | 155° |